2018/04/23 05:00 VVNB 230500Z 12007KT 080V140 9999 BKN016 29/24 Q1006 NOSIG
2018/04/23 05:00 VVDN 230500Z 12007KT 8000 NSC 32/25 Q1007 NOSIG
2018/04/23 05:00 VVTS 230500Z VRB03G14KT 9999 BKN017 34/24 Q1008 NOSIG
2018/04/23 05:00 VVPB 230500Z 04005KT CAVOK 35/27 Q1007 NOSIG

Powered by MinhViet JSC.